createdAt,value
2022-09-23T00:00:07.951Z,9.8
2022-09-23T00:05:08.173Z,9.8
2022-09-23T00:10:07.880Z,10.0
2022-09-23T00:15:08.565Z,10.0
2022-09-23T00:20:08.301Z,10.0
2022-09-23T00:25:08.003Z,10.0
2022-09-23T00:30:07.727Z,10.0
2022-09-23T00:35:08.430Z,10.0
2022-09-23T00:40:08.202Z,9.6
2022-09-23T00:45:07.958Z,9.6
2022-09-23T00:50:07.666Z,9.6
2022-09-23T00:55:08.356Z,9.6
2022-09-23T01:00:08.034Z,9.6
2022-09-23T01:05:07.734Z,9.6
2022-09-23T01:10:08.454Z,9.5
2022-09-23T01:15:08.139Z,9.5
2022-09-23T01:20:07.838Z,9.5
2022-09-23T01:25:18.479Z,9.5
2022-09-23T01:30:12.378Z,9.3
2022-09-23T01:35:07.846Z,9.3
2022-09-23T01:40:08.622Z,9.3
2022-09-23T01:45:08.379Z,9.3
2022-09-23T01:50:18.057Z,9.5
2022-09-23T01:55:07.808Z,9.5
2022-09-23T02:00:08.490Z,9.3
2022-09-23T02:05:08.166Z,9.3
2022-09-23T02:10:07.852Z,9.3
2022-09-23T02:15:08.559Z,9.3
2022-09-23T02:20:08.303Z,9.1
2022-09-23T02:25:08.278Z,9.1
2022-09-23T02:30:07.947Z,9.1
2022-09-23T02:35:07.666Z,9.1
2022-09-23T02:40:08.417Z,9.3
2022-09-23T02:45:08.145Z,9.3
2022-09-23T02:50:07.845Z,9.5
2022-09-23T02:55:08.564Z,9.5
2022-09-23T03:00:08.300Z,9.1
2022-09-23T03:05:07.995Z,9.1
2022-09-23T03:10:07.695Z,9.6
2022-09-23T03:15:08.408Z,9.6
2022-09-23T03:20:08.151Z,9.8
2022-09-23T03:25:07.865Z,9.8
2022-09-23T03:30:08.586Z,9.6
2022-09-23T03:35:08.283Z,9.6
2022-09-23T03:40:08.024Z,9.5
2022-09-23T03:45:07.752Z,9.5
2022-09-23T03:50:08.468Z,9.5
2022-09-23T03:55:08.127Z,9.5
2022-09-23T04:00:07.842Z,9.1
2022-09-23T04:05:02.668Z,9.1
2022-09-23T04:10:02.486Z,9.1
2022-09-23T04:15:02.224Z,9.1
2022-09-23T04:20:02.070Z,9.0
2022-09-23T04:25:01.902Z,9.0
2022-09-23T04:30:01.825Z,9.0
2022-09-23T04:35:02.578Z,9.0
2022-09-23T04:40:02.401Z,9.1
2022-09-23T04:45:02.227Z,9.1
2022-09-23T04:50:02.069Z,9.3
2022-09-23T04:55:01.872Z,9.3
2022-09-23T05:00:02.643Z,9.5
2022-09-23T05:05:02.466Z,9.5
2022-09-23T05:10:02.269Z,9.0
2022-09-23T05:15:02.116Z,9.0
2022-09-23T05:20:01.952Z,9.0
2022-09-23T05:25:01.772Z,9.0
2022-09-23T05:30:02.532Z,9.1
2022-09-23T05:35:02.453Z,9.1
2022-09-23T05:40:02.396Z,9.1
2022-09-23T05:45:02.328Z,9.1
2022-09-23T05:50:02.256Z,9.5
2022-09-23T05:55:02.194Z,9.5
2022-09-23T06:00:02.139Z,10.1
2022-09-23T06:05:02.053Z,10.1
2022-09-23T06:10:01.988Z,10.3
2022-09-23T06:15:01.797Z,10.3
2022-09-23T06:20:02.648Z,10.8
2022-09-23T06:25:02.588Z,10.8
2022-09-23T06:30:02.432Z,11.0
2022-09-23T06:35:02.241Z,11.0
2022-09-23T06:40:02.120Z,11.1
2022-09-23T06:45:01.915Z,11.1
2022-09-23T06:50:02.765Z,11.1
2022-09-23T06:55:02.604Z,11.1
2022-09-23T07:00:02.523Z,11.3
2022-09-23T07:05:02.341Z,11.3
2022-09-23T07:10:02.153Z,11.6
2022-09-23T07:15:02.009Z,11.6
2022-09-23T07:20:01.819Z,11.8
2022-09-23T07:25:02.557Z,11.8
2022-09-23T07:30:02.413Z,12.1
2022-09-23T07:35:02.241Z,12.1
2022-09-23T07:40:02.122Z,12.3
2022-09-23T07:45:01.897Z,12.3
2022-09-23T07:50:02.627Z,12.6
2022-09-23T07:55:02.460Z,12.6
2022-09-23T08:00:02.311Z,12.8
2022-09-23T08:05:02.126Z,12.8
2022-09-23T08:10:01.952Z,13.3
2022-09-23T08:15:01.871Z,13.3
2022-09-23T08:20:02.828Z,13.8
2022-09-23T08:25:02.682Z,13.8
2022-09-23T08:30:02.589Z,14.3
2022-09-23T08:35:02.508Z,14.3
2022-09-23T08:40:02.374Z,14.8
2022-09-23T08:45:02.409Z,14.8
2022-09-23T08:50:02.360Z,14.8
2022-09-23T08:55:02.184Z,14.8
2022-09-23T09:00:01.982Z,14.6
2022-09-23T09:05:04.861Z,14.6
2022-09-23T09:10:12.701Z,14.8
2022-09-23T09:15:02.550Z,15.1
2022-09-23T09:20:02.413Z,15.1
2022-09-23T09:25:02.255Z,15.1
2022-09-23T09:30:02.102Z,15.1
2022-09-23T09:35:01.918Z,15.0
2022-09-23T09:40:02.774Z,15.0
2022-09-23T09:45:02.599Z,15.1
2022-09-23T09:50:02.326Z,15.1
2022-09-23T09:55:02.115Z,15.6
2022-09-23T10:00:01.919Z,15.8
2022-09-23T10:05:01.746Z,15.8
2022-09-23T10:10:15.942Z,16.0
2022-09-23T10:15:01.922Z,16.0
2022-09-23T10:20:01.717Z,16.3
2022-09-23T10:25:07.633Z,16.3
2022-09-23T10:30:12.419Z,16.3
2022-09-23T10:35:02.247Z,16.3
2022-09-23T10:40:02.092Z,17.2
2022-09-23T10:45:01.934Z,17.2
2022-09-23T10:50:01.726Z,17.7
2022-09-23T10:55:02.584Z,17.7
2022-09-23T11:00:02.557Z,17.7
2022-09-23T11:05:02.532Z,17.7
2022-09-23T11:10:02.490Z,17.5
2022-09-23T11:15:02.440Z,17.5
2022-09-23T11:20:12.459Z,18.2
2022-09-23T11:25:02.395Z,18.2
2022-09-23T11:30:02.254Z,17.7
2022-09-23T11:35:02.117Z,18.1
2022-09-23T11:40:01.931Z,18.1
2022-09-23T11:45:01.716Z,17.7
2022-09-23T11:50:02.464Z,17.7
2022-09-23T11:55:04.294Z,17.8
2022-09-23T12:00:01.819Z,17.8
2022-09-23T12:05:02.920Z,18.1
2022-09-23T12:10:01.966Z,18.1
2022-09-23T12:15:01.737Z,18.5
2022-09-23T12:20:02.551Z,18.5
2022-09-23T12:25:12.088Z,18.6
2022-09-23T12:30:01.952Z,18.6
2022-09-23T12:35:01.767Z,19.1
2022-09-23T12:40:02.658Z,19.7
2022-09-23T12:45:02.425Z,19.7
2022-09-23T12:50:02.274Z,20.2
2022-09-23T12:55:02.393Z,20.2
2022-09-23T13:00:02.224Z,18.8
2022-09-23T13:05:02.059Z,18.8
2022-09-23T13:10:08.136Z,20.1
2022-09-23T13:15:02.016Z,20.1
2022-09-23T13:20:01.893Z,19.3
2022-09-23T13:25:02.710Z,19.3
2022-09-23T13:30:02.411Z,18.8
2022-09-23T13:35:02.166Z,18.8
2022-09-23T13:40:02.056Z,18.7
2022-09-23T13:45:01.955Z,18.7
2022-09-23T13:50:01.870Z,18.2
2022-09-23T13:55:02.896Z,18.2
2022-09-23T14:00:02.841Z,17.8
2022-09-23T14:05:02.790Z,17.8
2022-09-23T14:10:02.710Z,18.2
2022-09-23T14:15:02.530Z,18.2
2022-09-23T14:20:02.369Z,18.2
2022-09-23T14:25:02.207Z,18.2
2022-09-23T14:30:02.004Z,17.8
2022-09-23T14:35:01.765Z,17.8
2022-09-23T14:40:02.595Z,18.1
2022-09-23T14:45:02.429Z,18.1
2022-09-23T14:50:02.282Z,18.2
2022-09-23T14:55:02.191Z,18.2
2022-09-23T15:00:02.023Z,18.1
2022-09-23T15:05:01.870Z,18.1
2022-09-23T15:10:02.701Z,17.7
2022-09-23T15:15:02.514Z,17.7
2022-09-23T15:20:04.494Z,17.5
2022-09-23T15:25:12.330Z,17.5
2022-09-23T15:30:02.109Z,17.5
2022-09-23T15:35:01.950Z,17.5
2022-09-23T15:40:01.781Z,17.3
2022-09-23T15:45:02.643Z,17.3
2022-09-23T15:50:02.463Z,17.3
2022-09-23T15:55:02.399Z,17.3
2022-09-23T16:00:02.267Z,17.3
2022-09-23T16:05:02.041Z,17.3
2022-09-23T16:10:01.893Z,17.3
2022-09-23T16:15:03.339Z,17.3
2022-09-23T16:20:02.342Z,17.2
2022-09-23T16:25:02.339Z,17.2
2022-09-23T16:30:02.317Z,17.0
2022-09-23T16:35:02.345Z,17.0
2022-09-23T16:40:02.363Z,16.7
2022-09-23T16:45:02.458Z,16.7
2022-09-23T16:50:02.427Z,16.7
2022-09-23T16:55:02.378Z,16.7
2022-09-23T17:00:02.203Z,16.6
2022-09-23T17:05:02.057Z,16.3
2022-09-23T17:10:01.901Z,16.2
2022-09-23T17:15:02.738Z,16.2
2022-09-23T17:20:02.577Z,16.0
2022-09-23T17:25:02.390Z,16.0
2022-09-23T17:30:02.221Z,15.8
2022-09-23T17:35:02.046Z,15.8
2022-09-23T17:40:01.907Z,15.8
2022-09-23T17:45:02.817Z,15.8
2022-09-23T17:50:02.721Z,15.8
2022-09-23T17:55:02.503Z,15.8
2022-09-23T18:00:02.808Z,15.8
2022-09-23T18:05:02.545Z,15.6
2022-09-23T18:10:02.286Z,15.6
2022-09-23T18:15:02.114Z,15.6
2022-09-23T18:20:01.961Z,15.5
2022-09-23T18:25:13.065Z,15.3
2022-09-23T18:30:02.736Z,15.1
2022-09-23T18:35:02.593Z,15.0
2022-09-23T18:40:02.400Z,15.0
2022-09-23T18:45:02.221Z,14.6
2022-09-23T18:50:02.074Z,14.5
2022-09-23T18:55:01.900Z,14.5
2022-09-23T19:00:02.822Z,14.5
2022-09-23T19:05:02.752Z,14.3
2022-09-23T19:10:02.701Z,14.3
2022-09-23T19:15:02.631Z,13.1
2022-09-23T19:20:02.565Z,13.1
2022-09-23T19:25:02.485Z,13.1
2022-09-23T19:30:02.416Z,13.1
2022-09-23T19:35:02.365Z,13.1
2022-09-23T19:40:02.162Z,13.1
2022-09-23T19:45:01.990Z,13.1
2022-09-23T19:50:01.737Z,12.8
2022-09-23T19:55:02.466Z,12.8
2022-09-23T20:00:02.341Z,13.5
2022-09-23T20:05:02.149Z,13.5
2022-09-23T20:10:01.968Z,13.6
2022-09-23T20:15:01.854Z,13.6
2022-09-23T20:20:02.640Z,13.6
2022-09-23T20:25:03.246Z,13.6
2022-09-23T20:30:02.079Z,13.6
2022-09-23T20:35:14.721Z,13.8
2022-09-23T20:40:08.475Z,13.6
2022-09-23T20:45:08.197Z,13.6
2022-09-23T20:50:07.889Z,13.6
2022-09-23T20:55:08.633Z,13.6
2022-09-23T21:00:08.350Z,13.6
2022-09-23T21:05:08.072Z,13.6
2022-09-23T21:10:07.889Z,13.5
2022-09-23T21:15:08.602Z,13.6
2022-09-23T21:20:08.381Z,13.6
2022-09-23T21:25:28.070Z,13.6
2022-09-23T21:30:08.833Z,13.6
2022-09-23T21:35:08.561Z,13.6
2022-09-23T21:40:08.339Z,13.6
2022-09-23T21:45:08.076Z,13.8
2022-09-23T21:50:07.774Z,14.0
2022-09-23T21:55:08.457Z,13.8
2022-09-23T22:00:08.233Z,13.8
2022-09-23T22:05:07.911Z,13.8
2022-09-23T22:10:08.650Z,13.8
2022-09-23T22:15:08.340Z,13.6
2022-09-23T22:20:08.131Z,13.6
2022-09-23T22:25:07.870Z,13.6
2022-09-23T22:30:08.599Z,13.5
2022-09-23T22:35:08.443Z,12.5
2022-09-23T22:40:08.220Z,12.5
2022-09-23T22:45:08.004Z,12.5
2022-09-23T22:50:07.708Z,12.5
2022-09-23T22:55:08.571Z,12.5
2022-09-23T23:01:00.696Z,12.3
2022-09-23T23:05:08.588Z,12.5
2022-09-23T23:10:08.378Z,12.5
2022-09-23T23:15:08.073Z,12.3
2022-09-23T23:20:07.782Z,12.5
2022-09-23T23:25:08.503Z,12.5
2022-09-23T23:30:08.222Z,12.6
2022-09-23T23:35:07.946Z,12.5
2022-09-23T23:40:07.738Z,12.5
2022-09-23T23:45:08.460Z,12.5
2022-09-23T23:50:08.210Z,12.5
2022-09-23T23:55:07.895Z,12.5
